Time;durP1;ratioP1;P1;durP2;ratioP2;P2;SDS_P1;SDS_P2;PMS_P1;PMS_P2;Temp;Humidity;BMP_temperature;BMP_pressure;BME280_temperature;BME280_humidity;BME280_pressure;Samples;Min_cycle;Max_cycle;Signal;HPM_P1;HPM_P2
2023/06/08 00:01:12;;;;;;;6.90;4.90;;;17.40;99.90;;;18.14;100.00;98061.00;5027357;28;20458;-85
2023/06/08 00:03:43;;;;;;;7.57;5.27;;;17.40;99.90;;;18.12;100.00;98055.94;5005539;28;20486;-85
2023/06/08 00:06:15;;;;;;;6.40;4.87;;;17.30;99.90;;;18.09;100.00;98054.56;5025513;28;20968;-85
2023/06/08 00:08:45;;;;;;;7.37;5.47;;;17.30;99.90;;;18.06;100.00;98051.56;5026490;28;20475;-85
2023/06/08 00:11:14;;;;;;;6.90;5.10;;;17.30;99.90;;;18.01;100.00;98052.28;5022957;28;20458;-85
2023/06/08 00:13:43;;;;;;;8.17;5.80;;;17.20;99.90;;;17.99;100.00;98049.06;5023820;28;20980;-85
2023/06/08 00:16:13;;;;;;;7.00;5.90;;;17.20;99.90;;;17.96;100.00;98048.72;5008220;28;20466;-86
2023/06/08 00:18:45;;;;;;;10.40;5.73;;;17.20;99.90;;;17.92;100.00;98042.28;5025677;28;21008;-85
2023/06/08 00:21:13;;;;;;;12.80;6.00;;;17.20;99.90;;;17.91;100.00;98040.72;5025775;28;20463;-85
2023/06/08 00:23:42;;;;;;;7.77;5.50;;;17.20;99.90;;;17.87;100.00;98037.72;5025394;28;20493;-86
2023/06/08 00:26:12;;;;;;;7.37;5.23;;;17.20;99.90;;;17.84;100.00;98045.31;5026612;28;20902;-86
2023/06/08 00:28:42;;;;;;;8.83;6.00;;;17.10;99.90;;;17.78;100.00;98035.66;5025596;28;20466;-86
2023/06/08 00:31:10;;;;;;;6.70;4.90;;;17.10;99.90;;;17.75;100.00;98044.06;5025177;28;20469;-86
2023/06/08 00:33:39;;;;;;;5.87;4.90;;;17.00;99.90;;;17.73;100.00;98038.22;5023833;28;20469;-85
2023/06/08 00:36:10;;;;;;;9.47;5.70;;;17.00;99.90;;;17.69;100.00;98034.41;5005695;28;20472;-86
2023/06/08 00:38:39;;;;;;;13.73;5.03;;;16.90;99.90;;;17.68;100.00;98035.44;5022539;28;20462;-86
2023/06/08 00:41:08;;;;;;;9.60;6.20;;;16.90;99.90;;;17.67;100.00;98031.22;5023095;28;21085;-86
2023/06/08 00:43:37;;;;;;;5.97;5.37;;;16.90;99.90;;;17.64;100.00;98026.34;5022941;28;20544;-86
2023/06/08 00:46:07;;;;;;;8.40;5.27;;;16.90;99.90;;;17.60;100.00;98026.81;5024169;28;21032;-85
2023/06/08 00:48:37;;;;;;;7.20;5.10;;;16.80;99.90;;;17.58;100.00;98025.44;5024623;28;20973;-85
2023/06/08 00:51:06;;;;;;;7.43;5.73;;;16.80;99.90;;;17.54;100.00;98030.38;5006507;28;20794;-87
2023/06/08 00:53:38;;;;;;;6.30;5.43;;;16.80;99.90;;;17.53;100.00;98031.41;5023763;28;20468;-85
2023/06/08 00:56:09;;;;;;;8.10;5.60;;;16.70;99.90;;;17.52;100.00;98032.47;4998634;28;20461;-84
2023/06/08 00:58:39;;;;;;;6.47;5.27;;;16.70;99.90;;;17.49;100.00;98032.13;5021769;28;20550;-86
2023/06/08 01:01:12;;;;;;;8.13;6.10;;;16.70;99.90;;;17.47;100.00;98031.53;5004794;28;20466;-85
2023/06/08 01:03:42;;;;;;;7.67;6.40;;;16.70;99.90;;;17.43;100.00;98036.47;5021766;28;20497;-86
2023/06/08 01:06:12;;;;;;;8.10;6.40;;;16.70;99.90;;;17.37;100.00;98034.75;5004920;28;20467;-86
2023/06/08 01:08:59;;;;;;;8.80;6.17;;;16.70;99.90;;;17.31;100.00;98030.41;5023400;28;20498;-85
2023/06/08 01:11:49;;;;;;;7.83;5.60;;;16.60;99.90;;;17.26;100.00;98027.63;5025167;28;20469;-85
2023/06/08 01:14:36;;;;;;;9.50;6.00;;;16.50;99.90;;;17.24;100.00;98024.41;5009940;28;20474;-85
2023/06/08 01:17:12;;;;;;;8.20;6.10;;;16.50;99.90;;;17.21;100.00;98019.59;5027573;28;20466;-86
2023/06/08 01:20:02;;;;;;;7.10;5.63;;;16.50;99.90;;;17.18;100.00;98030.59;5027147;28;20462;-85
2023/06/08 01:22:56;;;;;;;8.43;5.10;;;16.40;99.90;;;17.12;100.00;98026.22;5021902;28;20469;-85
2023/06/08 01:25:29;;;;;;;6.93;5.97;;;16.40;99.90;;;17.09;100.00;98021.41;5026738;28;20458;-85
2023/06/08 01:28:12;;;;;;;7.30;6.20;;;16.40;99.90;;;17.07;100.00;98028.78;5027432;28;20477;-85
2023/06/08 01:30:43;;;;;;;8.00;6.00;;;16.30;99.90;;;17.04;100.00;98027.38;5028517;28;20539;-85
2023/06/08 01:33:17;;;;;;;8.10;5.90;;;16.30;99.90;;;17.01;100.00;98019.91;5027055;28;20562;-85
2023/06/08 01:36:01;;;;;;;13.63;5.80;;;16.30;99.90;;;16.99;100.00;98019.34;5026031;28;20483;-86
2023/06/08 01:38:45;;;;;;;8.03;5.90;;;16.20;99.90;;;16.96;100.00;98011.88;5027242;28;20470;-85
2023/06/08 01:41:23;;;;;;;7.90;5.60;;;16.20;99.90;;;16.93;100.00;98014.16;5026313;28;20792;-86
2023/06/08 01:43:55;;;;;;;7.00;6.00;;;16.20;99.90;;;16.90;100.00;98009.34;5025103;28;20497;-85
2023/06/08 01:46:28;;;;;;;7.40;5.80;;;16.10;99.90;;;16.86;100.00;98008.19;5025873;28;20477;-86
2023/06/08 01:49:01;;;;;;;9.13;5.20;;;16.10;99.90;;;16.82;100.00;98005.19;5006425;28;20561;-86
2023/06/08 01:51:32;;;;;;;9.17;6.00;;;16.10;99.90;;;16.76;100.00;98003.47;5028660;28;20482;-85
2023/06/08 01:54:07;;;;;;;9.20;5.73;;;16.10;99.90;;;16.74;100.00;98002.06;5006906;28;21034;-86
2023/06/08 01:56:39;;;;;;;9.70;6.80;;;16.00;99.90;;;16.71;100.00;98003.34;5028324;28;20542;-85
2023/06/08 01:59:08;;;;;;;8.17;5.90;;;16.00;99.90;;;16.68;100.00;97997.69;5027866;28;20488;-86
2023/06/08 02:01:37;;;;;;;15.63;6.50;;;15.90;99.90;;;16.67;100.00;97998.72;5027685;28;20465;-85
2023/06/08 02:04:06;;;;;;;7.80;6.23;;;15.90;99.90;;;16.64;100.00;97996.53;5011890;28;20609;-85
2023/06/08 02:06:35;;;;;;;9.57;5.97;;;15.90;99.90;;;16.60;100.00;98002.28;5030568;28;21000;-85
2023/06/08 02:09:04;;;;;;;11.27;6.90;;;15.90;99.90;;;16.58;100.00;97999.06;5028381;28;20539;-86
2023/06/08 02:11:34;;;;;;;7.63;6.23;;;15.80;99.90;;;16.58;100.00;97992.97;5029637;28;20477;-84
2023/06/08 02:14:06;;;;;;;6.13;5.40;;;15.80;99.90;;;16.55;100.00;97991.59;5028059;28;20461;-85
2023/06/08 02:16:35;;;;;;;6.67;6.00;;;15.80;99.90;;;16.53;100.00;97993.63;5028511;28;20469;-86
2023/06/08 02:19:04;;;;;;;9.23;5.90;;;15.80;99.90;;;16.51;100.00;98003.59;5028992;28;20470;-86
2023/06/08 02:21:33;;;;;;;7.97;6.50;;;15.70;99.90;;;16.50;100.00;97996.72;5028806;28;20474;-86
2023/06/08 02:24:03;;;;;;;9.60;5.87;;;15.70;99.90;;;16.45;100.00;97991.28;5028076;28;20509;-85
2023/06/08 02:26:32;;;;;;;7.90;5.60;;;15.70;99.90;;;16.40;100.00;97991.19;5027190;28;20473;-85
2023/06/08 02:29:04;;;;;;;6.33;5.17;;;15.70;99.90;;;16.36;100.00;97995.28;5028929;28;20476;-85
2023/06/08 02:31:33;;;;;;;8.97;6.53;;;15.70;99.90;;;16.32;100.00;97990.69;5026998;28;21003;-85
2023/06/08 02:34:03;;;;;;;9.33;6.17;;;15.60;99.90;;;16.28;100.00;97992.97;5028444;28;20454;-85
2023/06/08 02:36:33;;;;;;;8.23;6.37;;;15.60;99.90;;;16.26;100.00;97999.50;5027555;28;20500;-86
2023/06/08 02:39:02;;;;;;;6.33;5.50;;;15.60;99.90;;;16.22;100.00;97993.88;5028328;28;21183;-85
2023/06/08 02:41:31;;;;;;;9.17;5.60;;;15.60;99.90;;;16.20;100.00;98000.41;5025713;28;20837;-85
2023/06/08 02:44:00;;;;;;;7.43;6.10;;;15.50;99.90;;;16.18;100.00;97992.69;5025655;28;20860;-86
2023/06/08 02:46:32;;;;;;;7.93;5.43;;;15.50;99.90;;;16.18;100.00;97997.16;5027637;28;20469;-85
2023/06/08 02:49:01;;;;;;;6.30;5.60;;;15.40;99.90;;;16.16;100.00;97996.59;5027372;28;20465;-85
2023/06/08 02:51:30;;;;;;;10.60;6.23;;;15.40;99.90;;;16.13;100.00;97999.69;5025996;28;20482;-85
2023/06/08 02:53:59;;;;;;;6.87;5.60;;;15.40;99.90;;;16.09;100.00;98000.13;5027158;28;20490;-86
2023/06/08 02:56:29;;;;;;;6.67;5.93;;;15.40;99.90;;;16.06;100.00;97999.78;5027172;28;20458;-85
2023/06/08 02:58:58;;;;;;;7.30;5.93;;;15.40;99.90;;;16.02;100.00;97999.41;5028368;28;20921;-85
2023/06/08 03:01:31;;;;;;;7.53;5.33;;;15.30;99.90;;;15.99;100.00;97993.78;5026764;28;20465;-85
2023/06/08 03:04:00;;;;;;;9.87;6.80;;;15.30;99.90;;;16.01;100.00;97992.53;5026764;28;20482;-85
2023/06/08 03:06:33;;;;;;;8.33;6.80;;;15.20;99.90;;;16.01;100.00;97997.78;5024566;28;20466;-87
2023/06/08 03:09:02;;;;;;;12.70;7.07;;;15.20;99.90;;;15.99;100.00;97988.50;5027912;28;20478;-86
2023/06/08 03:11:31;;;;;;;11.07;6.30;;;15.20;99.90;;;15.96;100.00;97994.22;5008050;28;20465;-84
2023/06/08 03:14:01;;;;;;;12.20;5.77;;;15.20;99.90;;;15.95;100.00;97992.59;5025097;28;20840;-85
2023/06/08 03:16:31;;;;;;;6.63;5.30;;;15.20;99.90;;;15.93;100.00;97994.66;5020445;28;20481;-84
2023/06/08 03:19:00;;;;;;;6.73;5.13;;;15.20;99.90;;;15.90;100.00;97989.81;5022852;28;20470;-76
2023/06/08 03:21:31;;;;;;;7.80;6.20;;;15.20;99.90;;;15.87;100.00;97998.97;5022330;28;20476;-78
2023/06/08 03:23:59;;;;;;;7.97;5.40;;;15.10;99.90;;;15.86;100.00;98001.84;5021348;28;21109;-79
2023/06/08 03:26:28;;;;;;;7.23;5.13;;;15.10;99.90;;;15.84;100.00;97998.63;5023336;28;20469;-78
2023/06/08 03:28:57;;;;;;;8.17;6.17;;;15.10;99.90;;;15.81;100.00;97999.88;5021044;28;20474;-79
2023/06/08 03:31:26;;;;;;;9.77;6.20;;;15.10;99.90;;;15.80;100.00;97994.81;5021096;28;20467;-79
2023/06/08 03:33:58;;;;;;;7.50;5.80;;;15.10;99.90;;;15.78;100.00;97996.88;5023292;28;20553;-79
2023/06/08 03:36:33;;;;;;;6.13;5.17;;;15.00;99.90;;;15.77;100.00;97989.97;5020512;28;20462;-78
2023/06/08 03:39:06;;;;;;;7.47;5.87;;;15.00;99.90;;;15.76;100.00;98005.00;5022238;28;20478;-78
2023/06/08 03:41:35;;;;;;;8.87;5.90;;;15.00;99.90;;;15.73;100.00;97986.97;5019601;28;20493;-79
2023/06/08 03:44:06;;;;;;;7.30;5.40;;;15.00;99.90;;;15.73;100.00;97994.09;5017511;28;22137;-79
2023/06/08 03:46:36;;;;;;;8.80;6.17;;;15.00;99.90;;;15.70;100.00;97991.88;5022043;28;20508;-76
2023/06/08 03:49:09;;;;;;;9.77;6.80;;;14.90;99.90;;;15.69;100.00;97990.31;5021428;28;20913;-78
2023/06/08 03:51:38;;;;;;;7.20;6.10;;;14.90;99.90;;;15.66;100.00;97994.16;5021161;28;20477;-78
2023/06/08 03:54:08;;;;;;;9.40;6.07;;;14.90;99.90;;;15.64;100.00;97990.16;5023318;28;20468;-79
2023/06/08 03:56:40;;;;;;;7.67;5.30;;;14.90;99.90;;;15.61;100.00;97994.03;5008960;28;20470;-79
2023/06/08 03:59:19;;;;;;;10.87;6.10;;;14.90;99.90;;;15.59;100.00;97996.88;5025501;28;20466;-79
2023/06/08 04:01:48;;;;;;;9.13;5.93;;;14.90;99.90;;;15.57;100.00;97996.31;5022608;28;20482;-79
2023/06/08 04:04:19;;;;;;;7.87;6.00;;;14.80;99.90;;;15.56;100.00;97994.69;5025413;28;20576;-78
2023/06/08 04:06:48;;;;;;;7.23;5.80;;;14.80;99.90;;;15.57;100.00;97995.50;5024167;28;20553;-78
2023/06/08 04:09:17;;;;;;;9.83;5.97;;;14.80;99.90;;;15.57;100.00;97995.50;5023289;28;20612;-79
2023/06/08 04:11:47;;;;;;;7.60;6.07;;;14.80;99.90;;;15.56;100.00;97997.31;4989388;28;20477;-77
2023/06/08 04:14:18;;;;;;;6.93;5.87;;;14.80;99.90;;;15.55;100.00;97993.06;5003042;28;21102;-79
2023/06/08 04:16:48;;;;;;;7.10;5.80;;;14.80;99.90;;;15.54;100.00;97991.47;5020773;28;20469;-78
2023/06/08 04:19:19;;;;;;;10.10;6.70;;;14.80;99.90;;;15.55;100.00;97995.69;5021488;28;20481;-78
2023/06/08 04:21:48;;;;;;;6.73;5.93;;;14.80;99.90;;;15.56;100.00;98004.41;5021541;28;20466;-79
2023/06/08 04:24:17;;;;;;;7.10;5.87;;;14.80;99.90;;;15.55;100.00;97997.53;5025085;28;20497;-80
2023/06/08 04:26:48;;;;;;;6.77;5.60;;;14.80;99.90;;;15.54;100.00;97993.31;4991477;28;20497;-79
2023/06/08 04:29:19;;;;;;;8.20;6.93;;;14.90;99.90;;;15.55;100.00;97994.88;5024994;28;20473;-79
2023/06/08 04:31:48;;;;;;;6.80;5.83;;;14.80;99.90;;;15.54;100.00;97991.47;5023221;28;20462;-78
2023/06/08 04:34:18;;;;;;;7.17;5.70;;;14.80;99.90;;;15.55;100.00;97997.53;5024660;28;20462;-79
2023/06/08 04:36:47;;;;;;;6.90;6.07;;;14.80;99.90;;;15.55;100.00;98002.78;5024584;28;20466;-78
2023/06/08 04:39:17;;;;;;;9.57;6.20;;;14.80;99.90;;;15.56;100.00;97996.50;5025815;28;20489;-79
2023/06/08 04:41:47;;;;;;;8.23;5.80;;;14.80;99.90;;;15.56;100.00;97992.03;5024185;28;20501;-79
2023/06/08 04:44:20;;;;;;;11.23;6.63;;;14.90;99.90;;;15.56;100.00;98005.22;5006821;28;20551;-79
2023/06/08 04:46:49;;;;;;;8.20;6.33;;;14.90;99.90;;;15.57;100.00;97992.84;5024183;28;20927;-79
2023/06/08 04:49:21;;;;;;;8.50;6.37;;;14.90;99.90;;;15.59;100.00;97999.50;5023315;28;20989;-79
2023/06/08 04:51:54;;;;;;;7.83;6.00;;;14.90;99.90;;;15.62;100.00;97998.25;5023322;28;20467;-79
2023/06/08 04:54:23;;;;;;;9.37;6.17;;;14.90;99.90;;;15.65;100.00;97997.03;5021912;28;20466;-79
2023/06/08 04:56:58;;;;;;;8.30;5.70;;;14.90;99.90;;;15.68;100.00;97994.75;5022177;28;20466;-79
2023/06/08 04:59:27;;;;;;;7.50;5.63;;;14.90;99.90;;;15.73;100.00;97994.09;5023746;28;20461;-79
2023/06/08 05:01:56;;;;;;;6.30;5.43;;;14.90;99.90;;;15.76;100.00;97991.81;5022715;28;20462;-79
2023/06/08 05:04:26;;;;;;;6.77;5.80;;;15.00;99.90;;;15.80;100.00;97992.16;5022746;28;21024;-79
2023/06/08 05:06:55;;;;;;;9.20;6.30;;;15.00;99.90;;;15.84;100.00;97986.25;5025033;28;20469;-78
2023/06/08 05:09:24;;;;;;;7.00;5.53;;;15.00;99.90;;;15.86;100.00;97989.44;5023484;28;20470;-78
2023/06/08 05:11:53;;;;;;;8.73;5.77;;;15.10;99.90;;;15.89;100.00;97990.88;5022071;28;20552;-78
2023/06/08 05:14:21;;;;;;;6.40;5.10;;;15.10;99.90;;;15.91;100.00;97991.44;5021638;28;20469;-79
2023/06/08 05:16:50;;;;;;;7.97;6.10;;;15.10;99.90;;;15.93;100.00;97997.31;5024435;28;20508;-78
2023/06/08 05:19:18;;;;;;;6.50;5.00;;;15.20;99.90;;;15.95;100.00;97998.69;5022576;28;20517;-78
2023/06/08 05:21:49;;;;;;;6.47;5.70;;;15.20;99.90;;;16.00;100.00;97995.41;5021204;28;20469;-79
2023/06/08 05:24:18;;;;;;;7.53;5.90;;;15.20;99.90;;;15.98;100.00;97986.88;5022971;28;20557;-79
2023/06/08 05:26:48;;;;;;;6.80;5.47;;;15.20;99.90;;;16.04;100.00;97992.06;5023923;28;20501;-79
2023/06/08 05:29:17;;;;;;;7.20;5.63;;;15.20;99.90;;;16.11;100.00;97991.97;5025425;28;20462;-79
2023/06/08 05:31:45;;;;;;;7.30;5.40;;;15.30;99.90;;;16.14;100.00;97996.81;5023161;28;20470;-78
2023/06/08 05:34:14;;;;;;;6.77;6.07;;;15.30;99.90;;;16.18;100.00;97989.25;5023276;28;20519;-78
2023/06/08 05:36:43;;;;;;;12.60;5.73;;;15.30;99.90;;;16.19;100.00;97994.31;5023349;28;20462;-79
2023/06/08 05:39:13;;;;;;;6.70;5.10;;;15.40;99.90;;;16.25;100.00;97990.78;5024249;28;20473;-78
2023/06/08 05:41:41;;;;;;;7.20;5.23;;;15.40;99.90;;;16.30;100.00;97993.56;5022729;28;20517;-79
2023/06/08 05:44:10;;;;;;;7.63;6.23;;;15.50;99.90;;;16.35;100.00;97996.31;5023223;28;20465;-78
2023/06/08 05:46:39;;;;;;;7.63;5.63;;;15.50;99.90;;;16.39;100.00;97984.28;5021305;28;20494;-77
2023/06/08 05:49:07;;;;;;;19.67;11.67;;;15.60;99.90;;;16.43;100.00;97993.38;5019591;28;20458;-79
2023/06/08 05:51:36;;;;;;;7.60;6.10;;;15.60;99.90;;;16.47;100.00;97989.25;5021251;28;20474;-79
2023/06/08 05:54:05;;;;;;;6.53;4.87;;;15.60;99.90;;;16.52;100.00;97992.00;5021610;28;20474;-78
2023/06/08 05:56:35;;;;;;;9.60;5.73;;;15.70;99.90;;;16.53;100.00;97990.97;5025067;28;20466;-79
2023/06/08 05:59:04;;;;;;;8.63;5.60;;;15.70;99.90;;;16.57;100.00;97986.09;5022210;28;20462;-79
2023/06/08 06:01:32;;;;;;;8.83;5.30;;;15.70;99.90;;;16.63;100.00;97989.63;5017784;28;20458;-79
2023/06/08 06:04:01;;;;;;;6.50;5.50;;;15.80;99.90;;;16.66;100.00;97990.00;5023729;28;20466;-79
2023/06/08 06:06:32;;;;;;;231.97;116.77;;;15.80;99.90;;;16.72;100.00;97993.56;5023044;28;20497;-77
2023/06/08 06:09:01;;;;;;;12.00;8.90;;;15.90;99.90;;;16.76;100.00;97989.47;5022203;28;20477;-77
2023/06/08 06:11:30;;;;;;;7.87;6.60;;;15.90;99.90;;;16.82;100.00;97988.53;5024067;28;20460;-78
2023/06/08 06:14:00;;;;;;;8.40;6.07;;;16.00;99.90;;;16.85;100.00;97991.53;5022494;28;20470;-78
2023/06/08 06:16:28;;;;;;;14.60;6.70;;;16.00;99.90;;;16.90;100.00;97989.00;5023385;28;20482;-78
2023/06/08 06:18:59;;;;;;;8.50;6.03;;;16.10;99.90;;;16.96;100.00;97993.38;5023796;28;20470;-78
2023/06/08 06:21:28;;;;;;;35.40;19.87;;;16.10;99.90;;;17.01;100.00;97987.38;5023276;28;20466;-78
2023/06/08 06:23:56;;;;;;;12.40;7.00;;;16.20;99.90;;;17.08;100.00;97985.44;5024998;28;20925;-78
2023/06/08 06:26:25;;;;;;;7.80;6.30;;;16.20;99.90;;;17.13;100.00;97975.00;5022692;28;21043;-78
2023/06/08 06:28:55;;;;;;;11.43;7.13;;;16.30;99.90;;;17.20;100.00;97985.44;5025481;28;20458;-78
2023/06/08 06:31:26;;;;;;;12.93;7.90;;;16.40;99.90;;;17.25;100.00;97983.72;5022869;28;20478;-78
2023/06/08 06:33:56;;;;;;;10.73;5.97;;;16.40;99.90;;;17.31;100.00;97985.47;5024138;28;20489;-78
2023/06/08 06:36:26;;;;;;;9.77;5.60;;;16.50;99.90;;;17.37;100.00;97986.34;5026227;28;20509;-78
2023/06/08 06:38:55;;;;;;;9.30;5.47;;;16.50;99.90;;;17.45;100.00;97981.53;5026422;28;20501;-78
2023/06/08 06:41:25;;;;;;;9.40;6.17;;;16.60;99.90;;;17.53;100.00;97985.63;5026150;28;20528;-78
2023/06/08 06:43:53;;;;;;;11.30;5.30;;;16.80;99.90;;;17.59;100.00;97990.84;5027386;28;20461;-78
2023/06/08 06:46:22;;;;;;;8.17;5.17;;;16.80;99.90;;;17.66;100.00;97990.72;5026101;28;20540;-77
2023/06/08 06:48:52;;;;;;;6.43;5.03;;;16.80;99.90;;;17.76;100.00;97984.84;5026124;28;20462;-77
2023/06/08 06:51:21;;;;;;;5.70;5.00;;;17.00;99.90;;;17.85;100.00;97988.69;5026370;28;20559;-77
2023/06/08 06:53:49;;;;;;;7.43;4.63;;;17.20;99.90;;;17.94;100.00;97989.97;5026702;28;20477;-77
2023/06/08 06:56:18;;;;;;;5.90;4.30;;;17.30;99.90;;;18.01;100.00;97988.75;5026405;28;20480;-77
2023/06/08 06:58:46;;;;;;;11.30;5.20;;;17.30;99.90;;;18.07;100.00;97987.03;5025935;28;20462;-77
2023/06/08 07:01:15;;;;;;;7.10;5.27;;;17.30;99.90;;;18.14;100.00;97981.59;5025908;28;20561;-77
2023/06/08 07:03:46;;;;;;;7.73;5.10;;;17.40;99.90;;;18.19;100.00;97989.63;5025515;28;20553;-77
2023/06/08 07:06:17;;;;;;;7.03;5.83;;;17.40;99.90;;;18.27;100.00;97990.03;5023608;28;21070;-77
2023/06/08 07:08:45;;;;;;;8.33;5.10;;;17.50;99.90;;;18.34;100.00;97988.06;5024756;28;20470;-77
2023/06/08 07:11:14;;;;;;;11.97;5.20;;;17.70;99.90;;;18.38;100.00;97983.91;5025461;28;20458;-77
2023/06/08 07:13:43;;;;;;;8.03;6.20;;;17.70;99.90;;;18.43;100.00;97981.31;5025604;28;20462;-78
2023/06/08 07:16:12;;;;;;;6.27;4.90;;;17.70;99.90;;;18.47;100.00;97981.66;5024900;28;20470;-77
2023/06/08 07:18:41;;;;;;;10.90;5.80;;;17.70;99.90;;;18.53;100.00;97988.69;5025238;28;20469;-77
2023/06/08 07:21:11;;;;;;;10.93;5.10;;;17.80;99.90;;;18.56;100.00;97978.44;5026681;28;20890;-77
2023/06/08 07:23:43;;;;;;;8.93;5.53;;;17.80;99.90;;;18.63;100.00;97985.41;5024480;28;20821;-77
2023/06/08 07:26:31;;;;;;;10.53;6.23;;;17.90;99.90;;;18.71;100.00;97988.44;5024803;28;21543;-77
2023/06/08 07:29:02;;;;;;;8.60;5.23;;;18.00;99.90;;;18.79;100.00;97987.25;5024614;28;21095;-77
2023/06/08 07:31:31;;;;;;;8.83;5.17;;;18.20;99.90;;;18.83;100.00;97985.72;5025059;28;21008;-77
2023/06/08 07:34:00;;;;;;;6.00;5.40;;;18.20;99.90;;;18.90;100.00;97992.47;5024563;28;20480;-77
2023/06/08 07:36:29;;;;;;;7.57;5.77;;;18.30;99.90;;;18.97;100.00;97994.97;5025235;28;20516;-77
2023/06/08 07:38:59;;;;;;;7.97;5.37;;;18.30;99.90;;;19.00;100.00;97990.00;5025650;28;20463;-77
2023/06/08 07:41:28;;;;;;;6.20;5.43;;;18.40;99.90;;;18.99;100.00;97991.03;5023980;28;20482;-78
2023/06/08 07:43:56;;;;;;;17.40;5.30;;;18.30;99.90;;;19.05;100.00;97992.69;5025459;28;20967;-77
2023/06/08 07:46:25;;;;;;;6.43;5.33;;;18.40;99.90;;;19.15;100.00;97984.13;5026281;28;20522;-77
2023/06/08 07:48:55;;;;;;;8.50;5.87;;;18.50;99.90;;;19.19;100.00;97985.25;5024541;28;20872;-77
2023/06/08 07:51:23;;;;;;;11.47;6.13;;;18.50;99.90;;;19.22;100.00;97981.28;5026308;28;20474;-77
2023/06/08 07:53:52;;;;;;;8.43;6.43;;;18.50;99.90;;;19.28;100.00;97986.41;5024938;28;21040;-77
2023/06/08 07:56:22;;;;;;;6.37;5.50;;;18.50;99.90;;;19.34;100.00;97981.97;5025358;28;20482;-77
2023/06/08 07:58:50;;;;;;;7.57;5.80;;;18.60;99.90;;;19.42;100.00;97985.06;5026130;28;20469;-78
2023/06/08 08:01:19;;;;;;;6.97;4.97;;;18.80;99.90;;;19.50;100.00;97989.13;5025349;28;20477;-77
2023/06/08 08:03:48;;;;;;;13.70;5.00;;;18.80;99.90;;;19.51;100.00;97983.56;5024188;28;20472;-77
2023/06/08 08:06:18;;;;;;;12.37;5.47;;;18.80;99.90;;;19.57;100.00;97979.97;5024227;28;20470;-77
2023/06/08 08:08:47;;;;;;;5.93;5.33;;;18.90;99.90;;;19.65;100.00;97983.22;5025747;28;20454;-78
2023/06/08 08:11:15;;;;;;;8.37;6.37;;;19.00;99.90;;;19.69;100.00;97984.31;5025033;28;20565;-77
2023/06/08 08:13:46;;;;;;;9.10;4.77;;;19.00;99.90;;;19.76;100.00;97990.25;5024415;28;20514;-77
2023/06/08 08:16:15;;;;;;;10.17;5.87;;;19.10;99.90;;;19.78;100.00;97978.34;5024534;28;20508;-77
2023/06/08 08:18:43;;;;;;;7.83;5.90;;;19.10;99.90;;;19.85;100.00;97972.88;5023394;28;20532;-77
2023/06/08 08:21:12;;;;;;;8.70;5.77;;;19.20;99.90;;;19.93;100.00;97983.03;5024952;28;20838;-77
2023/06/08 08:23:41;;;;;;;7.93;5.97;;;19.30;99.90;;;19.95;100.00;97975.63;5024679;28;20473;-77
2023/06/08 08:26:09;;;;;;;11.07;6.97;;;19.30;99.90;;;19.97;100.00;97971.66;5024188;28;20993;-77
2023/06/08 08:28:41;;;;;;;8.30;5.70;;;19.30;99.90;;;20.03;100.00;97969.84;5024658;28;20490;-78
2023/06/08 08:31:11;;;;;;;12.80;5.40;;;19.30;99.90;;;20.07;100.00;97965.66;5023650;28;20462;-78
2023/06/08 08:33:39;;;;;;;6.47;5.77;;;19.30;99.90;;;20.17;100.00;97964.97;5022763;28;20536;-77
2023/06/08 08:36:09;;;;;;;9.80;5.20;;;19.50;99.90;;;20.24;100.00;97965.56;5023364;28;20466;-77
2023/06/08 08:38:40;;;;;;;5.93;5.33;;;19.70;99.90;;;20.31;100.00;97959.03;5024122;28;20473;-77
2023/06/08 08:41:12;;;;;;;8.70;5.97;;;19.80;99.90;;;20.39;100.00;97965.75;5024688;28;20490;-77
2023/06/08 08:43:51;;;;;;;6.73;5.67;;;19.80;99.90;;;20.42;100.00;97962.59;5025348;28;20473;-77
2023/06/08 08:46:25;;;;;;;11.40;6.10;;;19.80;99.90;;;20.46;100.00;97964.50;5023331;28;20450;-77
2023/06/08 08:48:58;;;;;;;7.27;5.70;;;19.80;99.90;;;20.47;100.00;97960.00;5024429;28;20450;-77
2023/06/08 08:51:28;;;;;;;10.23;5.80;;;19.80;99.90;;;20.48;100.00;97957.06;5024365;28;20482;-77
2023/06/08 08:54:00;;;;;;;10.37;6.10;;;19.80;99.90;;;20.49;100.00;97956.03;5024938;28;20466;-77
2023/06/08 08:56:36;;;;;;;9.37;5.20;;;19.80;99.90;;;20.54;100.00;97956.06;5024209;28;20467;-78
2023/06/08 08:59:07;;;;;;;7.10;6.07;;;19.80;99.90;;;20.62;100.00;97949.47;5022273;28;20960;-77
2023/06/08 09:01:39;;;;;;;9.70;5.97;;;19.90;99.90;;;20.65;100.00;97956.97;5022766;28;20470;-77
2023/06/08 09:04:08;;;;;;;7.27;6.00;;;20.00;99.90;;;20.69;100.00;97946.63;5024815;28;20454;-78
2023/06/08 09:06:38;;;;;;;7.33;5.03;;;20.00;99.90;;;20.72;100.00;97951.44;5024155;28;20848;-77
2023/06/08 09:09:07;;;;;;;7.50;5.50;;;20.00;99.90;;;20.77;100.00;97951.44;5024624;28;20501;-77
2023/06/08 09:11:58;;;;;;;8.43;5.30;;;20.10;99.90;;;20.87;100.00;97956.84;5023792;28;20549;-77
2023/06/08 09:14:27;;;;;;;11.70;5.23;;;20.30;99.90;;;20.90;100.00;97948.34;5022577;28;20512;-77
2023/06/08 09:16:59;;;;;;;7.63;5.90;;;20.20;99.90;;;20.93;100.00;97950.53;5022540;28;20505;-77
2023/06/08 09:19:29;;;;;;;7.13;5.50;;;20.20;99.90;;;20.95;100.00;97945.75;5022766;28;21066;-77
2023/06/08 09:21:58;;;;;;;12.00;5.97;;;20.30;99.90;;;21.00;100.00;97941.25;5023575;28;20459;-78
2023/06/08 09:24:27;;;;;;;9.83;6.30;;;20.30;99.90;;;21.06;100.00;97947.41;5024009;28;20466;-78
2023/06/08 09:26:58;;;;;;;9.57;5.50;;;20.40;99.90;;;21.14;100.00;97944.28;5024337;28;20477;-77
2023/06/08 09:29:36;;;;;;;7.80;5.63;;;20.60;99.90;;;21.26;100.00;97938.78;5026702;28;20482;-78
2023/06/08 09:32:09;;;;;;;7.57;5.70;;;20.70;99.90;;;21.38;100.00;97940.16;5027629;28;20553;-79
2023/06/08 09:34:58;;;;;;;5.17;4.67;;;20.90;99.90;;;21.50;100.00;97932.78;5028225;28;20537;-78
2023/06/08 09:37:31;;;;;;;12.53;6.13;;;21.00;99.90;;;21.55;100.00;97935.44;5027470;28;20457;-79
2023/06/08 09:40:04;;;;;;;9.23;5.13;;;20.90;99.90;;;21.57;100.00;97930.69;5026721;28;20454;-78
2023/06/08 09:42:46;;;;;;;9.37;8.37;;;21.00;99.90;;;21.68;100.00;97920.88;5027140;28;20484;-77
2023/06/08 09:45:16;;;;;;;8.03;5.90;;;21.00;99.90;;;21.76;100.00;97922.25;5026139;28;21131;-79
2023/06/08 09:47:48;;;;;;;9.10;5.80;;;21.10;99.90;;;21.84;100.00;97917.19;5028668;28;20563;-79
2023/06/08 09:50:18;;;;;;;9.57;5.07;;;21.20;99.90;;;21.94;100.00;97921.78;5028827;28;20461;-79
2023/06/08 09:52:51;;;;;;;9.77;5.37;;;21.40;99.90;;;22.04;100.00;97919.94;5027740;28;21538;-79
2023/06/08 09:55:21;;;;;;;10.40;6.07;;;21.50;99.90;;;22.12;100.00;97918.63;5026389;28;21149;-79
2023/06/08 09:57:53;;;;;;;7.00;5.30;;;21.50;99.90;;;22.22;100.00;97915.16;5024757;28;20953;-78
2023/06/08 10:00:27;;;;;;;5.47;4.80;;;21.70;99.90;;;22.28;100.00;97917.59;5028553;28;20457;-79
2023/06/08 10:03:09;;;;;;;12.10;5.00;;;21.70;99.90;;;22.31;100.00;97905.59;5027173;28;20474;-79
2023/06/08 10:05:45;;;;;;;8.30;5.47;;;21.80;99.90;;;22.37;100.00;97912.53;5026818;28;20472;-79
2023/06/08 10:08:20;;;;;;;8.83;5.40;;;21.80;99.90;;;22.43;99.60;97909.59;5027091;28;20497;-79
2023/06/08 10:10:49;;;;;;;9.13;4.73;;;22.00;99.90;;;22.48;95.41;97906.13;5027201;28;20942;-79
2023/06/08 10:13:18;;;;;;;6.97;5.20;;;22.10;99.30;;;22.56;95.41;97902.94;5026264;28;20473;-79
2023/06/08 10:15:48;;;;;;;6.47;5.30;;;22.00;99.40;;;22.58;95.88;97901.59;5023990;28;20480;-79
2023/06/08 10:18:18;;;;;;;7.63;4.90;;;22.00;99.60;;;22.62;96.95;97899.19;5026635;28;20468;-79
2023/06/08 10:20:49;;;;;;;4.57;4.17;;;22.00;99.70;;;22.68;89.49;97900.81;5026788;28;20940;-78
2023/06/08 10:23:20;;;;;;;7.13;4.80;;;22.10;98.10;;;22.75;91.65;97898.69;5028240;28;20494;-79
2023/06/08 10:25:50;;;;;;;6.57;5.60;;;22.30;98.70;;;22.81;90.20;97896.78;5025272;28;20471;-80
2023/06/08 10:28:21;;;;;;;6.50;4.80;;;22.40;98.30;;;22.74;90.74;97888.25;5008671;28;20490;-79